Weather at Georgetown (Georgetown & District Hospital) Heliport

Public forecast

Using degrees Celsius for public forecast. Weather courtesy of forecast.io.

Closest aviation weather report (METAR) to Georgetown (Georgetown & District Hospital) Heliport

Closest report is Toronto Lester B. Pearson International Airport, 13.3 nm (24.7 km) E.

2024/05/21 14:00 (retrieved 39 minutes ago)

CYYZ 211400Z 13009G16KT 15SM FEW060 BKN140 BKN180 23/16 A2986 RMK CF1AC5AC1 CF TR SLP113 DENSITY ALT 1800FT

Closest aviation forecast (TAF) to Georgetown (Georgetown & District Hospital) Heliport

Closest forecast is Toronto Lester B. Pearson International Airport, 13.3 nm (24.7 km) E.

2024/05/21 12:42 (retrieved 2 hours ago)

TAF CYYZ 211140Z 2112/2218 18005KT P6SM BKN070 TEMPO 2112/2115 P6SM -SHRA VCTS BKN060CB FM211500 15010KT P6SM SCT050 FM211700 16010KT P6SM SCT060 TEMPO 2117/2120 P6SM -SHRA VCTS BKN060CB BECMG 2118/2120 25012G22KT FM212300 27010KT P6SM SKC BECMG 2200/2202 VRB03KT BECMG 2209/2211 15007KT FM221500 19012G22KT P6SM BKN040 FM221700 22018G28KT P6SM -SHRA BKN030 RMK NXT FCST BY 211500Z